Time;durP1;ratioP1;P1;durP2;ratioP2;P2;SDS_P1;SDS_P2;PMS_P1;PMS_P2;Temp;Humidity;BMP_temperature;BMP_pressure;BME280_temperature;BME280_humidity;BME280_pressure;Samples;Min_cycle;Max_cycle;Signal;HPM_P1;HPM_P2
2023/07/28 00:00:42;;;;;;;6.07;3.92;;;;;;;21.08;100.00;95520.41;5056112;28;20060;-88
2023/07/28 00:03:08;;;;;;;7.53;4.60;;;;;;;21.06;100.00;95522.50;5055115;28;20397;-87
2023/07/28 00:05:35;;;;;;;7.30;4.63;;;;;;;20.96;100.00;95517.81;5050168;28;20029;-88
2023/07/28 00:08:01;;;;;;;7.38;4.38;;;;;;;21.11;100.00;95519.91;5058537;28;20099;-88
2023/07/28 00:10:26;;;;;;;7.10;4.82;;;;;;;21.09;100.00;95522.84;5061423;28;20031;-88
2023/07/28 00:12:52;;;;;;;12.52;4.03;;;;;;;21.13;100.00;95513.28;5060723;28;20042;-88
2023/07/28 00:15:17;;;;;;;9.30;4.65;;;;;;;20.92;100.00;95511.31;5070493;28;20051;-88
2023/07/28 00:17:44;;;;;;;8.25;4.78;;;;;;;20.91;100.00;95515.84;5060812;28;20025;-89
2023/07/28 00:20:10;;;;;;;6.80;4.38;;;;;;;20.96;100.00;95520.50;5076962;28;20120;-88
2023/07/28 00:22:36;;;;;;;6.63;4.35;;;;;;;21.12;100.00;95510.84;5078235;28;20068;-88
2023/07/28 00:25:02;;;;;;;6.22;4.22;;;;;;;21.05;100.00;95516.34;5061475;28;20595;-88
2023/07/28 00:27:28;;;;;;;7.45;4.30;;;;;;;21.18;100.00;95509.88;5076859;28;20474;-88
2023/07/28 00:29:53;;;;;;;9.93;4.72;;;;;;;21.07;100.00;95502.75;5061060;28;20041;-88
2023/07/28 00:32:19;;;;;;;6.55;4.22;;;;;;;21.32;100.00;95507.66;5058870;28;20112;-88
2023/07/28 00:34:46;;;;;;;6.47;3.63;;;;;;;21.16;100.00;95501.31;5052942;28;20482;-88
2023/07/28 00:37:11;;;;;;;8.07;3.80;;;;;;;21.22;100.00;95499.50;5062014;28;20103;-88
2023/07/28 00:39:37;;;;;;;8.23;4.05;;;;;;;21.21;100.00;95504.03;5063274;28;20031;-88
2023/07/28 00:42:03;;;;;;;6.22;3.80;;;;;;;21.23;100.00;95501.94;5054792;28;20028;-88
2023/07/28 00:44:28;;;;;;;5.90;3.22;;;;;;;21.13;100.00;95499.91;5067434;28;20074;-88
2023/07/28 00:46:54;;;;;;;7.13;3.53;;;;;;;21.11;100.00;95499.34;5069146;28;20028;-88
2023/07/28 00:49:19;;;;;;;6.63;3.53;;;;;;;21.05;100.00;95494.16;5054619;28;20024;-88
2023/07/28 00:51:46;;;;;;;6.97;3.88;;;;;;;21.14;100.00;95492.69;5041042;28;20471;-88
2023/07/28 00:54:12;;;;;;;6.20;3.97;;;;;;;20.84;100.00;95493.81;5062415;28;20028;-87
2023/07/28 00:56:37;;;;;;;6.30;3.45;;;;;;;20.70;100.00;95492.53;5045773;28;20025;-88
2023/07/28 00:59:04;;;;;;;7.30;4.05;;;;;;;20.73;100.00;95494.72;5057809;28;20040;-88
2023/07/28 01:01:30;;;;;;;8.50;4.43;;;;;;;20.56;100.00;95491.22;5073732;28;20032;-88
2023/07/28 01:03:55;;;;;;;6.68;3.55;;;;;;;20.67;100.00;95485.78;5059416;28;20436;-88
2023/07/28 01:06:35;;;;;;;6.70;3.63;;;;;;;20.46;100.00;95487.25;5059130;28;20111;-88
2023/07/28 01:09:04;;;;;;;6.88;3.70;;;;;;;20.36;100.00;95495.09;5056770;28;20028;-87
2023/07/28 01:11:30;;;;;;;8.75;3.80;;;;;;;20.56;100.00;95491.22;5068250;28;20040;-88
2023/07/28 01:13:55;;;;;;;6.35;3.40;;;;;;;20.67;100.00;95493.81;5053163;28;20116;-88
2023/07/28 01:16:21;;;;;;;8.48;3.67;;;;;;;20.78;100.00;95489.44;5070962;28;20029;-88
2023/07/28 01:18:47;;;;;;;5.07;2.97;;;;;;;;;;5048145;28;20025;-88
2023/07/28 01:21:26;;;;;;;9.93;3.08;;;;;;;20.88;100.00;95489.59;5057946;28;20090;-88
2023/07/28 01:24:26;;;;;;;6.35;2.97;;;;;;;20.76;100.00;95498.75;5072527;28;20353;-88
2023/07/28 01:26:51;;;;;;;5.20;3.22;;;;;;;20.81;100.00;95494.31;5070465;28;20493;-88
2023/07/28 01:29:19;;;;;;;6.53;3.40;;;;;;;20.81;100.00;95496.97;5059108;28;20017;-88
2023/07/28 01:31:49;;;;;;;7.53;3.10;;;;;;;20.89;100.00;95501.94;5070096;28;20067;-88
2023/07/28 01:34:14;;;;;;;6.00;2.80;;;;;;;20.80;100.00;95495.38;5066088;28;20017;-88
2023/07/28 01:36:40;;;;;;;6.10;3.05;;;;;;;20.88;100.00;95500.31;5075525;28;20017;-88
2023/07/28 01:39:08;;;;;;;4.38;2.55;;;;;;;20.77;100.00;95495.84;5055539;28;20020;-88
2023/07/28 01:41:33;;;;;;;5.70;2.65;;;;;;;20.75;100.00;95492.59;5065449;28;20482;-88
2023/07/28 01:43:59;;;;;;;4.80;2.72;;;;;;;20.77;100.00;95487.03;5075949;28;20023;-89
2023/07/28 01:46:25;;;;;;;7.53;3.17;;;;;;;20.70;100.00;95481.81;5076568;28;20037;-88
2023/07/28 01:48:50;;;;;;;6.10;3.58;;;;;;;20.60;100.00;95481.66;5072252;28;20021;-88
2023/07/28 01:51:16;;;;;;;4.78;3.03;;;;;;;20.85;100.00;95487.41;5047953;28;20033;-88
2023/07/28 01:53:41;;;;;;;5.90;3.42;;;;;;;20.79;100.00;95487.56;5071678;28;20059;-88
2023/07/28 01:56:07;;;;;;;7.78;3.00;;;;;;;20.57;100.00;95479.47;5071134;28;20024;-88
2023/07/28 01:58:40;;;;;;;11.40;3.00;;;;;;;20.61;100.00;95475.25;5075609;28;20054;-88
2023/07/28 02:01:06;;;;;;;5.57;3.08;;;;;;;20.39;100.00;95480.44;5055791;28;20119;-89
2023/07/28 02:03:32;;;;;;;6.05;3.15;;;;;;;20.69;100.00;95474.84;5054616;28;20020;-88
2023/07/28 02:05:57;;;;;;;5.75;3.17;;;;;;;21.05;100.00;95472.75;5054827;28;20021;-89
2023/07/28 02:08:23;;;;;;;6.22;3.33;;;;;;;20.94;100.00;95475.28;5069519;28;20426;-86
2023/07/28 02:10:48;;;;;;;6.80;3.17;;;;;;;20.93;100.00;95468.31;5056554;28;20024;-88
2023/07/28 02:13:14;;;;;;;4.80;2.95;;;;;;;20.77;100.00;95471.78;5058848;28;20434;-88
2023/07/28 02:15:39;;;;;;;5.18;3.08;;;;;;;20.95;100.00;95476.09;5056085;28;20020;-88
2023/07/28 02:18:05;;;;;;;4.97;3.22;;;;;;;20.99;100.00;95474.53;5067251;28;20017;-88
2023/07/28 02:20:31;;;;;;;5.22;2.85;;;;;;;20.89;100.00;95480.56;5057906;28;20103;-88
2023/07/28 02:22:56;;;;;;;4.65;2.83;;;;;;;21.04;100.00;95474.63;5059031;28;20023;-88
2023/07/28 02:28:23;;;;;;;5.50;3.08;;;;;;;20.68;100.00;95473.22;5069966;28;20085;-88
2023/07/28 02:31:11;;;;;;;5.03;3.05;;;;;;;20.53;100.00;95472.97;5055502;28;20032;-88
2023/07/28 02:33:36;;;;;;;6.07;3.00;;;;;;;20.33;100.00;95471.53;5052493;28;20051;-88
2023/07/28 02:36:06;;;;;;;5.13;3.00;;;;;;;20.21;100.00;95473.44;5055943;28;20017;-88
2023/07/28 02:38:31;;;;;;;4.20;2.45;;;;;;;20.38;100.00;95473.47;5064045;28;20028;-89
2023/07/28 02:40:57;;;;;;;4.55;2.78;;;;;;;20.37;100.00;95475.34;5069746;28;20089;-88
2023/07/28 02:43:22;;;;;;;5.85;2.80;;;;;;;20.38;100.00;95476.13;5044057;28;20033;-88
2023/07/28 02:45:55;;;;;;;5.00;3.00;;;;;;;20.17;100.00;95482.97;5052228;28;20025;-88
2023/07/28 02:48:22;;;;;;;4.45;3.03;;;;;;;20.11;100.00;95481.25;5066421;28;20079;-88
2023/07/28 02:50:50;;;;;;;5.82;3.00;;;;;;;20.13;100.00;95482.63;5042956;28;20537;-88
2023/07/28 02:53:16;;;;;;;6.32;3.20;;;;;;;20.14;100.00;95475.44;5053310;28;20024;-88
2023/07/28 02:55:45;;;;;;;7.40;3.45;;;;;;;20.11;100.00;95473.22;5055587;28;20016;-89
2023/07/28 02:58:12;;;;;;;6.25;3.33;;;;;;;20.24;100.00;95472.94;5046168;28;20066;-88
2023/07/28 03:00:39;;;;;;;5.85;3.25;;;;;;;20.10;100.00;95472.44;5056068;28;20019;-88
2023/07/28 03:03:05;;;;;;;5.53;3.85;;;;;;;20.34;100.00;95475.81;5053386;28;20024;-88
2023/07/28 03:05:32;;;;;;;7.47;3.47;;;;;;;20.47;100.00;95474.72;5054400;28;20431;-88
2023/07/28 03:08:18;;;;;;;5.03;3.08;;;;;;;20.34;100.00;95485.69;5067229;28;20029;-88
2023/07/28 03:10:43;;;;;;;5.32;3.10;;;;;;;20.12;100.00;95493.53;5053266;28;20021;-88
2023/07/28 03:13:09;;;;;;;5.25;3.22;;;;;;;20.09;100.00;95492.16;5050868;28;20028;-88
2023/07/28 03:15:34;;;;;;;5.05;3.05;;;;;;;20.30;100.00;95490.69;5072794;28;20427;-88
2023/07/28 03:18:00;;;;;;;4.50;2.78;;;;;;;20.34;100.00;95507.06;5045645;28;20021;-88
2023/07/28 03:20:26;;;;;;;5.95;3.22;;;;;;;20.10;100.00;95507.13;5060357;28;20427;-88
2023/07/28 03:22:51;;;;;;;4.50;2.78;;;;;;;20.26;100.00;95505.56;5049834;28;20078;-88
2023/07/28 03:25:18;;;;;;;5.10;3.10;;;;;;;20.18;100.00;95516.63;5045827;28;20021;-88
2023/07/28 03:27:43;;;;;;;6.13;3.03;;;;;;;20.52;100.00;95514.88;5054318;28;20111;-88
2023/07/28 03:30:10;;;;;;;6.05;3.45;;;;;;;20.57;100.00;95515.00;5066639;28;20051;-87
2023/07/28 03:32:37;;;;;;;7.10;2.97;;;;;;;20.36;100.00;95520.97;5071348;28;20052;-88
2023/07/28 03:35:04;;;;;;;6.07;3.45;;;;;;;20.56;100.00;95528.59;5063041;28;20025;-88
2023/07/28 03:37:32;;;;;;;4.68;2.83;;;;;;;20.41;100.00;95537.91;5065859;28;20075;-88
2023/07/28 03:39:58;;;;;;;6.13;3.22;;;;;;;20.34;100.00;95528.41;5064326;28;20023;-88
2023/07/28 03:42:35;;;;;;;7.00;3.05;;;;;;;20.60;100.00;95535.09;5051725;28;20024;-88
2023/07/28 03:45:00;;;;;;;6.30;2.85;;;;;;;20.60;100.00;95532.41;5056065;28;20025;-88
2023/07/28 03:47:26;;;;;;;4.95;3.05;;;;;;;20.67;100.00;95530.41;5056071;28;20063;-88
2023/07/28 03:49:52;;;;;;;4.70;2.95;;;;;;;20.77;100.00;95525.22;5066423;28;20036;-88
2023/07/28 03:52:17;;;;;;;5.55;2.78;;;;;;;20.58;100.00;95535.31;5059487;28;20036;-88
2023/07/28 03:54:43;;;;;;;5.60;2.95;;;;;;;20.57;100.00;95544.38;5068439;28;20026;-88
2023/07/28 03:57:09;;;;;;;5.60;3.33;;;;;;;20.37;100.00;95552.78;5062933;28;20024;-88
2023/07/28 03:59:34;;;;;;;6.55;3.08;;;;;;;20.62;100.00;95552.50;5066840;28;20126;-87
2023/07/28 04:02:00;;;;;;;5.88;3.50;;;;;;;20.64;100.00;95552.25;5080055;28;20035;-88
2023/07/28 04:04:26;;;;;;;5.45;3.08;;;;;;;20.62;100.00;95559.69;5073715;28;21581;-88
2023/07/28 04:06:53;;;;;;;5.30;2.92;;;;;;;20.58;100.00;95558.53;5061962;28;20068;-89
2023/07/28 04:09:19;;;;;;;4.88;2.78;;;;;;;20.60;100.00;95559.94;5062173;28;20049;-88
2023/07/28 04:11:45;;;;;;;6.10;3.63;;;;;;;20.56;100.00;95566.00;5088812;28;20032;-88
2023/07/28 04:14:11;;;;;;;5.93;2.95;;;;;;;20.39;100.00;95576.59;5067158;28;20056;-86
2023/07/28 04:16:37;;;;;;;6.55;3.63;;;;;;;20.30;100.00;95572.66;5050597;28;20021;-87
2023/07/28 04:19:03;;;;;;;5.68;3.80;;;;;;;20.52;100.00;95576.31;5057592;28;20012;-87
2023/07/28 04:21:29;;;;;;;4.63;3.10;;;;;;;20.56;100.00;95576.69;5056730;28;20028;-87
2023/07/28 04:23:55;;;;;;;5.05;3.40;;;;;;;20.54;100.00;95568.09;5075304;28;20032;-87
2023/07/28 04:26:26;;;;;;;6.40;3.50;;;;;;;20.35;100.00;95576.22;5067167;28;20029;-87
2023/07/28 04:29:05;;;;;;;5.97;3.83;;;;;;;20.54;100.00;95574.22;5059664;28;20557;-87
2023/07/28 04:31:31;;;;;;;6.47;3.47;;;;;;;20.36;100.00;95569.84;5075493;28;20032;-86
2023/07/28 04:34:04;;;;;;;4.88;2.80;;;;;;;20.62;100.00;95575.72;5059655;28;20070;-87
2023/07/28 04:36:50;;;;;;;5.05;3.28;;;;;;;20.40;100.00;95568.34;5073913;28;20033;-84
2023/07/28 04:39:18;;;;;;;6.15;3.30;;;;;;;20.08;100.00;95567.94;5066073;28;20074;-84
2023/07/28 04:41:44;;;;;;;6.45;3.70;;;;;;;20.31;100.00;95574.28;5047125;28;20215;-85
2023/07/28 04:44:10;;;;;;;4.82;2.92;;;;;;;20.47;100.00;95568.19;5051884;28;20040;-82
2023/07/28 04:46:41;;;;;;;5.78;3.42;;;;;;;20.28;100.00;95572.88;5064526;28;20497;-82
2023/07/28 04:49:11;;;;;;;7.50;3.63;;;;;;;20.32;100.00;95576.72;5053696;28;20089;-83
2023/07/28 04:51:55;;;;;;;5.60;3.25;;;;;;;20.56;100.00;95569.47;5074880;28;20043;-82
2023/07/28 04:54:33;;;;;;;6.30;3.38;;;;;;;20.87;100.00;95568.16;5060496;28;20017;-82
2023/07/28 04:56:59;;;;;;;6.05;4.00;;;;;;;20.93;100.00;95558.41;5066190;28;20021;-84
2023/07/28 04:59:31;;;;;;;6.43;3.80;;;;;;;21.13;100.00;95549.91;5058086;28;20481;-83
2023/07/28 05:01:57;;;;;;;4.10;3.17;;;;;;;21.22;100.00;95553.78;5054331;28;20020;-82
2023/07/28 05:04:25;;;;;;;6.35;3.53;;;;;;;20.87;100.00;95562.03;5067138;28;20478;-82
2023/07/28 05:06:51;;;;;;;5.70;3.40;;;;;;;20.97;100.00;95561.41;5050376;28;20020;-82
2023/07/28 05:09:17;;;;;;;5.20;3.58;;;;;;;20.84;100.00;95563.31;5061975;28;20025;-82
2023/07/28 05:11:44;;;;;;;5.00;3.40;;;;;;;21.19;100.00;95562.28;5055490;28;20045;-82
2023/07/28 05:14:09;;;;;;;7.75;3.58;;;;;;;21.00;100.00;95561.72;5057874;28;20013;-83
2023/07/28 05:16:35;;;;;;;5.50;3.58;;;;;;;21.07;100.00;95566.91;5066678;28;20023;-82
2023/07/28 05:19:27;;;;;;;5.97;3.78;;;;;;;21.13;100.00;95561.41;5064092;28;20039;-82
2023/07/28 05:22:26;;;;;;;4.97;3.15;;;;;;;21.27;100.00;95564.56;5073196;28;20372;-82
2023/07/28 05:25:07;;;;;;;;;;;;;;;21.12;100.00;95572.34;5073643;28;20031;-82
2023/07/28 05:27:38;;;;;;;5.55;3.67;;;;;;;20.91;100.00;95563.97;5056784;28;20007;-82
2023/07/28 05:30:05;;;;;;;7.00;3.97;;;;;;;20.78;100.00;95563.44;5054624;28;20028;-82
2023/07/28 05:32:31;;;;;;;6.90;4.00;;;;;;;20.89;100.00;95566.09;5073689;28;20048;-83
2023/07/28 05:35:16;;;;;;;7.25;3.50;;;;;;;20.97;100.00;95572.09;5064005;28;20236;-82
2023/07/28 05:38:00;;;;;;;6.82;3.85;;;;;;;20.74;100.00;95581.03;5073013;28;20024;-82
2023/07/28 05:40:39;;;;;;;7.63;4.40;;;;;;;20.94;100.00;95568.03;5053727;28;20020;-83
2023/07/28 05:43:05;;;;;;;7.28;3.80;;;;;;;21.03;100.00;95568.44;5060155;28;20498;-82
2023/07/28 05:45:30;;;;;;;8.07;4.38;;;;;;;21.06;100.00;95566.09;5056044;28;20020;-82
2023/07/28 05:47:56;;;;;;;6.82;3.97;;;;;;;20.95;100.00;95575.78;5072261;28;20024;-83
2023/07/28 05:50:21;;;;;;;5.80;3.58;;;;;;;20.79;100.00;95579.25;5071799;28;20020;-82
2023/07/28 05:52:47;;;;;;;5.43;3.55;;;;;;;20.72;100.00;95594.59;5073463;28;20063;-82
2023/07/28 05:55:12;;;;;;;6.78;3.72;;;;;;;20.65;100.00;95588.59;5071162;28;20054;-82
2023/07/28 05:57:38;;;;;;;5.82;3.72;;;;;;;20.58;100.00;95593.28;5054093;28;20482;-82
2023/07/28 06:00:09;;;;;;;6.13;3.80;;;;;;;20.71;100.00;95590.31;5063141;28;20028;-82
2023/07/28 06:02:39;;;;;;;9.15;4.28;;;;;;;20.76;100.00;95587.75;5067040;28;20052;-82
2023/07/28 06:05:08;;;;;;;5.72;3.70;;;;;;;20.81;100.00;95590.50;5064774;28;20451;-82
2023/07/28 06:07:34;;;;;;;6.63;3.88;;;;;;;21.06;100.00;95597.34;5049895;28;20020;-82
2023/07/28 06:10:00;;;;;;;8.05;3.97;;;;;;;21.08;100.00;95592.59;5068429;28;20078;-82
2023/07/28 06:12:25;;;;;;;6.32;4.18;;;;;;;21.21;100.00;95600.31;5055773;28;20097;-82
2023/07/28 06:14:51;;;;;;;7.00;4.07;;;;;;;21.13;100.00;95595.38;5067666;28;20028;-81
2023/07/28 06:17:17;;;;;;;6.03;3.80;;;;;;;21.11;100.00;95603.59;5053061;28;20526;-82
2023/07/28 06:19:42;;;;;;;6.72;4.03;;;;;;;21.26;100.00;95605.75;5065427;28;20059;-82
2023/07/28 06:22:23;;;;;;;7.13;4.75;;;;;;;21.41;100.00;95611.38;5069413;28;20070;-82
2023/07/28 06:24:50;;;;;;;5.43;4.03;;;;;;;21.81;100.00;95609.59;5052449;28;20023;-82
2023/07/28 06:27:16;;;;;;;7.28;4.43;;;;;;;21.59;100.00;95622.88;5064646;28;20025;-82
2023/07/28 06:29:42;;;;;;;6.30;3.70;;;;;;;21.70;100.00;95619.34;5069312;28;20478;-82
2023/07/28 06:32:09;;;;;;;6.35;4.28;;;;;;;21.71;100.00;95620.94;5054893;28;20029;-82
2023/07/28 06:34:36;;;;;;;8.05;5.38;;;;;;;21.86;100.00;95621.19;5048516;28;20017;-82
2023/07/28 06:37:02;;;;;;;11.63;5.20;;;;;;;21.86;100.00;95617.66;5067302;28;20020;-83
2023/07/28 06:39:29;;;;;;;7.93;4.25;;;;;;;21.83;100.00;95613.66;5053503;28;20043;-83
2023/07/28 06:41:55;;;;;;;7.43;4.18;;;;;;;21.75;100.00;95624.75;5057930;28;20075;-82
2023/07/28 06:44:21;;;;;;;7.18;4.07;;;;;;;21.48;100.00;95624.59;5042674;28;20376;-83
2023/07/28 06:46:50;;;;;;;6.47;3.90;;;;;;;21.33;100.00;95630.47;5071922;28;20509;-82
2023/07/28 06:49:20;;;;;;;5.65;3.90;;;;;;;21.70;100.00;95631.91;5074334;28;20119;-82
2023/07/28 06:51:49;;;;;;;8.57;4.40;;;;;;;21.21;100.00;95626.25;5069657;28;20032;-82
2023/07/28 06:54:30;;;;;;;7.97;4.82;;;;;;;21.83;100.00;95636.91;5063567;28;20078;-82
2023/07/28 06:57:04;;;;;;;6.88;4.32;;;;;;;21.59;100.00;95630.91;5066181;28;20021;-82
2023/07/28 06:59:30;;;;;;;6.57;4.20;;;;;;;21.72;100.00;95637.81;5056866;28;20078;-82
2023/07/28 07:02:05;;;;;;;9.52;4.70;;;;;;;21.85;100.00;95643.63;5047107;28;20033;-82
2023/07/28 07:04:33;;;;;;;6.45;4.40;;;;;;;21.64;100.00;95647.88;5042229;28;20025;-83
2023/07/28 07:06:59;;;;;;;7.53;4.63;;;;;;;21.70;100.00;95651.44;5064635;28;20474;-85
2023/07/28 07:09:25;;;;;;;7.55;4.95;;;;;;;21.53;100.00;95650.59;5070717;28;20035;-83
2023/07/28 07:11:50;;;;;;;7.80;5.25;;;;;;;21.67;100.00;95651.94;5068648;28;20754;-82
2023/07/28 07:14:16;;;;;;;8.00;5.63;;;;;;;21.82;100.00;95652.16;5064316;28;20032;-83
2023/07/28 07:16:42;;;;;;;9.00;4.90;;;;;;;21.80;100.00;95656.97;5061307;28;20043;-82
2023/07/28 07:19:09;;;;;;;8.65;5.07;;;;;;;21.63;100.00;95656.16;5049260;28;20436;-83
2023/07/28 07:21:35;;;;;;;6.20;4.75;;;;;;;21.61;100.00;95651.03;5053087;28;20032;-82
2023/07/28 07:24:03;;;;;;;6.85;4.38;;;;;;;21.62;100.00;95652.63;5052753;28;20112;-83
2023/07/28 07:26:28;;;;;;;8.02;4.53;;;;;;;21.86;100.00;95656.00;5071709;28;20029;-83
2023/07/28 07:28:57;;;;;;;7.95;4.63;;;;;;;21.75;100.00;95664.91;5067125;28;20030;-83
2023/07/28 07:31:23;;;;;;;6.25;4.38;;;;;;;21.61;100.00;95664.41;5069867;28;20438;-83
2023/07/28 07:33:58;;;;;;;8.93;5.38;;;;;;;21.46;100.00;95679.38;5050363;28;20017;-83
2023/07/28 07:36:23;;;;;;;7.45;5.13;;;;;;;21.33;100.00;95683.97;5045348;28;20032;-83
2023/07/28 07:38:49;;;;;;;10.05;7.55;;;;;;;21.83;100.00;95671.69;5065954;28;20029;-84
2023/07/28 07:41:21;;;;;;;7.95;6.75;;;;;;;22.00;100.00;95685.06;5069072;28;20036;-83
2023/07/28 07:43:47;;;;;;;7.10;5.40;;;;;;;22.07;100.00;95689.22;5047511;28;20593;-83
2023/07/28 07:46:15;;;;;;;7.93;5.53;;;;;;;22.01;100.00;95689.41;5055060;28;20016;-83
2023/07/28 07:48:40;;;;;;;7.57;5.90;;;;;;;21.95;100.00;95690.38;5070743;28;20020;-83
2023/07/28 07:51:08;;;;;;;7.65;5.22;;;;;;;22.11;100.00;95679.63;5054187;28;20073;-83
2023/07/28 07:53:36;;;;;;;7.07;4.50;;;;;;;22.14;100.00;95673.00;5063463;28;20051;-83
2023/07/28 07:56:05;;;;;;;9.85;5.80;;;;;;;22.44;100.00;95669.16;5070264;28;20024;-83
2023/07/28 07:58:39;;;;;;;10.18;5.75;;;;;;;22.95;100.00;95675.16;5050624;28;20017;-83
2023/07/28 08:01:05;;;;;;;8.23;5.43;;;;;;;23.00;100.00;95672.53;5046452;28;20316;-83
2023/07/28 08:03:31;;;;;;;9.98;5.20;;;;;;;24.22;100.00;95668.28;5059170;28;20475;-83
2023/07/28 08:05:57;;;;;;;10.15;5.50;;;;;;;23.70;100.00;95684.25;5073730;28;20446;-83
2023/07/28 08:08:24;;;;;;;7.47;4.90;;;;;;;23.84;100.00;95681.94;5070894;28;20020;-83
2023/07/28 08:10:50;;;;;;;7.75;5.10;;;;;;;24.23;100.00;95677.13;5040184;28;20023;-83
2023/07/28 08:13:16;;;;;;;7.80;4.90;;;;;;;24.03;100.00;95688.56;5053607;28;20016;-83
2023/07/28 08:15:46;;;;;;;6.32;4.65;;;;;;;23.86;100.00;95688.69;5067406;28;20029;-83
2023/07/28 08:18:12;;;;;;;7.85;4.75;;;;;;;24.31;100.00;95683.91;5067750;28;20070;-83
2023/07/28 08:20:38;;;;;;;7.15;4.20;;;;;;;24.75;100.00;95672.88;5053671;28;20024;-83
2023/07/28 08:23:04;;;;;;;7.85;4.10;;;;;;;24.64;100.00;95672.03;5065014;28;20036;-83
2023/07/28 08:25:29;;;;;;;7.90;4.32;;;;;;;25.72;100.00;95670.44;5043332;28;20021;-83
2023/07/28 08:27:55;;;;;;;6.80;3.80;;;;;;;25.79;100.00;95669.13;5051588;28;20624;-83
2023/07/28 08:30:32;;;;;;;6.10;3.90;;;;;;;25.62;100.00;95672.06;5051055;28;20028;-83
2023/07/28 08:33:09;;;;;;;5.38;3.40;;;;;;;26.06;100.00;95671.56;5055417;28;20551;-84
2023/07/28 08:35:35;;;;;;;7.13;4.03;;;;;;;26.01;100.00;95676.13;5069334;28;20036;-84
2023/07/28 08:38:01;;;;;;;5.95;3.78;;;;;;;25.29;100.00;95683.31;5072979;28;20020;-83
2023/07/28 08:40:27;;;;;;;6.50;3.85;;;;;;;24.96;100.00;95679.97;5065360;28;20028;-83
2023/07/28 08:42:53;;;;;;;5.95;3.65;;;;;;;25.07;100.00;95687.00;5076063;28;20382;-85
2023/07/28 08:45:19;;;;;;;6.53;4.25;;;;;;;24.49;100.00;95686.19;5078120;28;20068;-83
2023/07/28 08:47:45;;;;;;;6.15;4.25;;;;;;;24.57;100.00;95691.06;5070576;28;20036;-85
2023/07/28 08:50:12;;;;;;;7.90;5.00;;;;;;;24.24;100.00;95692.19;5069457;28;20089;-86
2023/07/28 08:52:37;;;;;;;6.03;3.75;;;;;;;23.87;100.00;95697.56;5060711;28;20021;-85
2023/07/28 08:55:06;;;;;;;5.55;4.00;;;;;;;23.69;100.00;95702.25;5082030;28;20489;-83
2023/07/28 08:57:32;;;;;;;6.35;4.45;;;;;;;23.43;100.00;95709.22;5081068;28;20051;-85
2023/07/28 08:59:57;;;;;;;6.60;3.90;;;;;;;23.35;100.00;95708.88;5064460;28;20020;-83
2023/07/28 09:02:23;;;;;;;8.32;4.05;;;;;;;23.24;100.00;95711.44;5061425;28;20486;-85
2023/07/28 09:04:49;;;;;;;9.90;4.28;;;;;;;23.02;100.00;95716.00;5050772;28;20098;-80
2023/07/28 09:07:15;;;;;;;8.20;5.10;;;;;;;22.98;100.00;95720.25;5075432;28;20055;-83
2023/07/28 09:09:41;;;;;;;6.97;4.30;;;;;;;22.95;100.00;95723.44;5060584;28;20024;-82
2023/07/28 09:12:08;;;;;;;6.05;4.55;;;;;;;23.10;100.00;95718.22;5080456;28;20021;-83
2023/07/28 09:14:36;;;;;;;9.07;5.95;;;;;;;23.06;100.00;95725.16;5070429;28;20016;-82
2023/07/28 09:17:09;;;;;;;8.80;4.82;;;;;;;23.22;100.00;95720.78;5064873;28;20453;-83
2023/07/28 09:19:48;;;;;;;8.95;5.57;;;;;;;23.13;100.00;95725.78;5059871;28;20055;-84
2023/07/28 09:22:14;;;;;;;8.98;7.10;;;;;;;23.38;100.00;95721.78;5079130;28;20040;-84
2023/07/28 09:24:39;;;;;;;7.00;4.95;;;;;;;23.29;100.00;95724.09;5078875;28;20027;-85
2023/07/28 09:27:05;;;;;;;8.35;5.60;;;;;;;23.13;100.00;95728.47;5064091;28;20482;-84
2023/07/28 09:29:31;;;;;;;5.88;4.60;;;;;;;23.42;100.00;95730.94;5079707;28;20024;-84
2023/07/28 09:32:05;;;;;;;7.03;5.88;;;;;;;23.27;100.00;95735.09;5060334;28;20024;-84
2023/07/28 09:34:30;;;;;;;10.27;7.10;;;;;;;23.25;100.00;95737.19;5049627;28;20024;-85
2023/07/28 09:36:57;;;;;;;7.15;5.50;;;;;;;23.58;100.00;95732.72;5060877;28;20060;-83
2023/07/28 09:39:24;;;;;;;6.80;3.97;;;;;;;23.51;100.00;95740.97;5073832;28;20037;-81
2023/07/28 09:41:49;;;;;;;6.05;3.80;;;;;;;22.98;100.00;95730.97;5057866;28;20016;-84
2023/07/28 09:44:16;;;;;;;5.43;3.50;;;;;;;23.19;100.00;95738.19;5050623;28;20055;-83
2023/07/28 09:47:01;;;;;;;6.43;3.50;;;;;;;22.76;100.00;95742.47;5057713;28;20028;-85
2023/07/28 09:49:27;;;;;;;5.45;3.50;;;;;;;23.05;100.00;95742.31;5073525;28;20530;-85
2023/07/28 09:51:57;;;;;;;7.00;3.47;;;;;;;23.42;100.00;95739.00;5056433;28;20056;-86
2023/07/28 09:54:29;;;;;;;6.57;3.40;;;;;;;23.66;100.00;95743.00;5075157;28;20021;-83
2023/07/28 09:56:59;;;;;;;6.40;3.37;;;;;;;23.51;100.00;95745.53;5056170;28;20120;-87
2023/07/28 09:59:54;;;;;;;4.57;2.67;;;;;;;23.97;100.00;95751.34;5079557;28;21005;-87
2023/07/28 10:02:20;;;;;;;4.78;2.78;;;;;;;23.67;100.00;95746.47;5073710;28;20409;-87
2023/07/28 10:04:45;;;;;;;4.88;2.90;;;;;;;24.06;100.00;95741.75;5054057;28;20033;-85
2023/07/28 10:07:12;;;;;;;5.45;3.20;;;;;;;23.70;100.00;95746.81;5076375;28;20025;-88
2023/07/28 10:09:39;;;;;;;5.03;2.70;;;;;;;23.50;100.00;95750.06;5054644;28;20032;-84
2023/07/28 10:12:05;;;;;;;5.65;2.95;;;;;;;23.81;100.00;95755.78;5064204;28;20029;-84
2023/07/28 10:14:34;;;;;;;6.32;2.78;;;;;;;23.78;100.00;95755.50;5056455;28;20069;-83
2023/07/28 10:17:04;;;;;;;3.42;2.20;;;;;;;24.02;100.00;95762.16;5062912;28;20036;-84
2023/07/28 10:19:34;;;;;;;3.17;2.00;;;;;;;24.52;100.00;95752.09;5065015;28;20029;-82
2023/07/28 10:22:00;;;;;;;5.78;3.40;;;;;;;24.59;100.00;95760.72;5069503;28;20029;-85
2023/07/28 10:24:49;;;;;;;5.47;3.40;;;;;;;24.82;100.00;95749.56;5061196;28;20032;-83
2023/07/28 10:27:38;;;;;;;4.40;2.47;;;;;;;25.04;100.00;95749.38;5072379;28;20063;-86
2023/07/28 10:30:11;;;;;;;4.25;2.95;;;;;;;25.24;100.00;95746.00;5074737;28;20020;-83
2023/07/28 10:32:42;;;;;;;4.55;2.60;;;;;;;26.02;100.00;95756.72;5075455;28;20145;-86
2023/07/28 10:35:17;;;;;;;5.88;2.70;;;;;;;25.76;100.00;95746.97;5060219;28;20093;-84
2023/07/28 10:37:46;;;;;;;4.20;2.45;;;;;;;25.64;100.00;95753.38;5054405;28;20129;-87
2023/07/28 10:40:30;;;;;;;4.70;2.58;;;;;;;26.72;100.00;95748.84;5057156;28;20025;-88
2023/07/28 10:42:57;;;;;;;4.00;2.40;;;;;;;26.40;100.00;95748.34;5066624;28;20028;-90
2023/07/28 10:45:26;;;;;;;4.60;2.88;;;;;;;26.33;100.00;95748.63;5070940;28;20017;-87
2023/07/28 10:47:55;;;;;;;6.72;4.35;;;;;;;25.83;100.00;95755.63;5058132;28;20074;-88
2023/07/28 10:50:23;;;;;;;3.83;2.30;;;;;;;25.10;100.00;95756.41;5067439;28;20024;-87
2023/07/28 10:52:49;;;;;;;4.10;2.65;;;;;;;25.10;100.00;95758.31;5072530;28;20070;-84
2023/07/28 10:55:20;;;;;;;5.15;2.42;;;;;;;25.65;100.00;95756.88;5052179;28;20024;-84
2023/07/28 10:57:46;;;;;;;4.90;2.60;;;;;;;26.00;100.00;95758.84;5053059;28;20024;-83
2023/07/28 11:00:15;;;;;;;4.68;2.83;;;;;;;26.09;100.00;95756.44;5068177;28;20013;-86
2023/07/28 11:02:48;;;;;;;3.80;2.30;;;;;;;26.12;100.00;95749.69;5066549;28;20020;-85
2023/07/28 11:05:20;;;;;;;4.90;2.20;;;;;;;25.83;100.00;95752.91;5050875;28;20025;-85
2023/07/28 11:08:02;;;;;;;4.22;2.60;;;;;;;25.78;100.00;95750.97;5071851;28;20028;-85
2023/07/28 11:10:31;;;;;;;4.70;2.40;;;;;;;25.66;100.00;95752.31;5051552;28;20034;-85
2023/07/28 11:13:01;;;;;;;4.28;2.53;;;;;;;26.06;100.00;95746.22;5069646;28;20025;-85
2023/07/28 11:15:42;;;;;;;5.15;2.28;;;;;;;26.35;100.00;95751.84;5064734;28;20050;-85
2023/07/28 11:18:09;;;;;;;5.63;1.92;;;;;;;26.15;100.00;95749.16;5064367;28;20040;-83
2023/07/28 11:20:35;;;;;;;5.05;2.25;;;;;;;26.01;100.00;95755.06;5057136;28;20028;-84
2023/07/28 11:23:03;;;;;;;4.85;2.17;;;;;;;25.97;100.00;95758.59;5072419;28;20498;-83
2023/07/28 11:25:44;;;;;;;4.78;2.45;;;;;;;25.54;100.00;95753.34;5061410;28;20032;-84
2023/07/28 11:28:10;;;;;;;2.95;1.70;;;;;;;25.91;100.00;95746.19;5076548;28;20036;-84
2023/07/28 11:30:42;;;;;;;3.33;1.70;;;;;;;25.73;100.00;95756.38;5083227;28;20028;-84
2023/07/28 11:33:13;;;;;;;4.00;2.08;;;;;;;25.67;100.00;95754.75;5076233;28;20017;-84
2023/07/28 11:35:42;;;;;;;3.30;1.80;;;;;;;25.39;100.00;95759.53;5073801;28;20473;-84